Terminal Aerodrome Forecast
Issued by NWS

Home | Current Version | Previous Version | Text Only | Print | Product List | Glossary On
Versions: 1 2 3 4 5 6 7 8 9 10 11 12 13 14
000
FTUS44 KEPZ 232300 RRA
TAFLRU
TAF
KLRU 232344Z 2400/2424 11012G18KT P6SM SCT100
     FM240300 10011KT P6SM FEW100
     FM241000 13006KT P6SM SKC
     FM241800 15011KT P6SM FEW110=

USA.gov is the U.S. government's official web portal to all federal, state and local government web resources and services.